Airport View

Enter AWOS ICAO identifier for current METAR.

ex. KFNL

PADL 192156Z 03007KT 10SM CLR 00/M03 A2951

19 Oct 2019 22:13

Frequency: 125.0

Phone: 907-842-2137

Other Area AWOS: PFCL - PAMB - PANW - PFWS

TAF PADL 191738Z 1918/2018 03006KT P6SM BKN021 FM200600 VRB06KT P6SM -RASN OVC025 FM201100 05005KT 4SM -RA BR OVC012